sensor_id;sensor_type;location;lat;lon;timestamp;P1;durP1;ratioP1;P2;durP2;ratioP2
49582;SDS011;36329;48.816;44.624;2022-08-20T00:01:27;5.6;;;1.8;;
49582;SDS011;36329;48.816;44.624;2022-08-20T00:04:30;8.3;;;1.8;;
49582;SDS011;36329;48.816;44.624;2022-08-20T00:07:38;8.6;;;1.8;;
49582;SDS011;36329;48.816;44.624;2022-08-20T00:10:41;5.9;;;1.4;;
49582;SDS011;36329;48.816;44.624;2022-08-20T00:13:45;8.6;;;1.9;;
49582;SDS011;36329;48.816;44.624;2022-08-20T00:16:53;8.5;;;2.7;;
49582;SDS011;36329;48.816;44.624;2022-08-20T00:20:00;6.8;;;1.8;;
49582;SDS011;36329;48.816;44.624;2022-08-20T00:23:03;7.5;;;1.7;;
49582;SDS011;36329;48.816;44.624;2022-08-20T00:26:11;8.1;;;1.7;;
49582;SDS011;36329;48.816;44.624;2022-08-20T00:29:14;7.8;;;1.7;;
49582;SDS011;36329;48.816;44.624;2022-08-20T00:32:15;6.9;;;1.7;;
49582;SDS011;36329;48.816;44.624;2022-08-20T00:38:38;7.8;;;1.7;;
49582;SDS011;36329;48.816;44.624;2022-08-20T00:41:41;9.4;;;2;;
49582;SDS011;36329;48.816;44.624;2022-08-20T00:44:43;11.1;;;2.2;;
49582;SDS011;36329;48.816;44.624;2022-08-20T00:47:46;15.8;;;1.7;;
49582;SDS011;36329;48.816;44.624;2022-08-20T00:50:47;7.3;;;1.9;;
49582;SDS011;36329;48.816;44.624;2022-08-20T00:53:49;7.3;;;1.5;;
49582;SDS011;36329;48.816;44.624;2022-08-20T00:56:54;6.8;;;1.5;;
49582;SDS011;36329;48.816;44.624;2022-08-20T01:00:06;6.5;;;1.7;;
49582;SDS011;36329;48.816;44.624;2022-08-20T01:03:16;7.6;;;1.7;;
49582;SDS011;36329;48.816;44.624;2022-08-20T01:06:19;8.8;;;1.6;;
49582;SDS011;36329;48.816;44.624;2022-08-20T01:09:26;7.3;;;1.7;;
49582;SDS011;36329;48.816;44.624;2022-08-20T01:12:30;10.3;;;1.9;;
49582;SDS011;36329;48.816;44.624;2022-08-20T01:15:31;7.5;;;1.6;;
49582;SDS011;36329;48.816;44.624;2022-08-20T01:18:33;5;;;1.7;;
49582;SDS011;36329;48.816;44.624;2022-08-20T01:21:36;7.1;;;1.5;;
49582;SDS011;36329;48.816;44.624;2022-08-20T01:24:38;4.9;;;1.6;;
49582;SDS011;36329;48.816;44.624;2022-08-20T01:27:48;10.1;;;1.9;;
49582;SDS011;36329;48.816;44.624;2022-08-20T01:30:51;8.1;;;1.6;;
49582;SDS011;36329;48.816;44.624;2022-08-20T01:37:15;6.6;;;1.7;;
49582;SDS011;36329;48.816;44.624;2022-08-20T01:40:20;5.7;;;1.4;;
49582;SDS011;36329;48.816;44.624;2022-08-20T01:43:34;9.6;;;1.6;;
49582;SDS011;36329;48.816;44.624;2022-08-20T01:46:37;6.3;;;1.4;;
49582;SDS011;36329;48.816;44.624;2022-08-20T01:49:41;6.5;;;1.4;;
49582;SDS011;36329;48.816;44.624;2022-08-20T01:52:51;5.7;;;1.4;;
49582;SDS011;36329;48.816;44.624;2022-08-20T01:56:06;8.3;;;1.9;;
49582;SDS011;36329;48.816;44.624;2022-08-20T01:59:09;7.7;;;1.4;;
49582;SDS011;36329;48.816;44.624;2022-08-20T02:02:12;5.9;;;1.4;;
49582;SDS011;36329;48.816;44.624;2022-08-20T02:05:19;6;;;1.4;;
49582;SDS011;36329;48.816;44.624;2022-08-20T02:08:22;4.6;;;1.4;;
49582;SDS011;36329;48.816;44.624;2022-08-20T02:11:31;6;;;1.3;;
49582;SDS011;36329;48.816;44.624;2022-08-20T02:14:33;5;;;1.3;;
49582;SDS011;36329;48.816;44.624;2022-08-20T02:17:40;7.9;;;1.6;;
49582;SDS011;36329;48.816;44.624;2022-08-20T02:20:42;6.6;;;1.3;;
49582;SDS011;36329;48.816;44.624;2022-08-20T02:23:45;6;;;1.5;;
49582;SDS011;36329;48.816;44.624;2022-08-20T02:26:48;7.6;;;1.6;;
49582;SDS011;36329;48.816;44.624;2022-08-20T02:29:51;8.1;;;1.4;;
49582;SDS011;36329;48.816;44.624;2022-08-20T02:33:06;4.5;;;1.4;;
49582;SDS011;36329;48.816;44.624;2022-08-20T02:36:08;3.7;;;1.4;;
49582;SDS011;36329;48.816;44.624;2022-08-20T02:39:11;5.9;;;1.3;;
49582;SDS011;36329;48.816;44.624;2022-08-20T02:42:13;5.8;;;1.9;;
49582;SDS011;36329;48.816;44.624;2022-08-20T02:45:15;11.1;;;1.7;;
49582;SDS011;36329;48.816;44.624;2022-08-20T02:48:18;5.2;;;1.5;;
49582;SDS011;36329;48.816;44.624;2022-08-20T02:51:21;7.3;;;1.5;;
49582;SDS011;36329;48.816;44.624;2022-08-20T02:54:24;6.6;;;1.5;;
49582;SDS011;36329;48.816;44.624;2022-08-20T02:57:25;6.6;;;1.6;;
49582;SDS011;36329;48.816;44.624;2022-08-20T03:00:29;4.8;;;1.5;;
49582;SDS011;36329;48.816;44.624;2022-08-20T03:03:36;7.3;;;1.3;;
49582;SDS011;36329;48.816;44.624;2022-08-20T03:06:39;5.5;;;1.4;;
49582;SDS011;36329;48.816;44.624;2022-08-20T03:09:41;6.1;;;1.6;;
49582;SDS011;36329;48.816;44.624;2022-08-20T03:12:42;5.4;;;1.6;;
49582;SDS011;36329;48.816;44.624;2022-08-20T03:15:47;4.9;;;1.5;;
49582;SDS011;36329;48.816;44.624;2022-08-20T03:18:51;5.5;;;1.5;;
49582;SDS011;36329;48.816;44.624;2022-08-20T03:21:52;5;;;1.6;;
49582;SDS011;36329;48.816;44.624;2022-08-20T03:24:54;5.8;;;1.4;;
49582;SDS011;36329;48.816;44.624;2022-08-20T03:28:06;6.9;;;1.5;;
49582;SDS011;36329;48.816;44.624;2022-08-20T03:31:09;7.5;;;1.3;;
49582;SDS011;36329;48.816;44.624;2022-08-20T03:34:11;5;;;1.6;;
49582;SDS011;36329;48.816;44.624;2022-08-20T03:37:17;7.7;;;1.8;;
49582;SDS011;36329;48.816;44.624;2022-08-20T03:40:25;6;;;1.7;;
49582;SDS011;36329;48.816;44.624;2022-08-20T03:43:34;9;;;1.6;;
49582;SDS011;36329;48.816;44.624;2022-08-20T03:46:41;9.6;;;1.7;;
49582;SDS011;36329;48.816;44.624;2022-08-20T03:49:43;7.4;;;1.7;;
49582;SDS011;36329;48.816;44.624;2022-08-20T03:52:45;5.6;;;1.7;;
49582;SDS011;36329;48.816;44.624;2022-08-20T03:55:47;6.7;;;1.8;;
49582;SDS011;36329;48.816;44.624;2022-08-20T03:58:49;7.8;;;1.8;;
49582;SDS011;36329;48.816;44.624;2022-08-20T04:01:51;8.2;;;2.1;;
49582;SDS011;36329;48.816;44.624;2022-08-20T04:04:52;6.9;;;1.8;;
49582;SDS011;36329;48.816;44.624;2022-08-20T04:07:54;7.1;;;1.8;;
49582;SDS011;36329;48.816;44.624;2022-08-20T04:14:09;8.3;;;2;;
49582;SDS011;36329;48.816;44.624;2022-08-20T04:17:12;10.2;;;1.8;;
49582;SDS011;36329;48.816;44.624;2022-08-20T04:20:14;8.2;;;1.8;;
49582;SDS011;36329;48.816;44.624;2022-08-20T04:23:18;8.6;;;1.9;;
49582;SDS011;36329;48.816;44.624;2022-08-20T04:26:21;7.7;;;1.9;;
49582;SDS011;36329;48.816;44.624;2022-08-20T04:29:28;7.3;;;1.9;;
49582;SDS011;36329;48.816;44.624;2022-08-20T04:32:35;7.3;;;1.7;;
49582;SDS011;36329;48.816;44.624;2022-08-20T04:35:43;7.6;;;2;;
49582;SDS011;36329;48.816;44.624;2022-08-20T04:38:44;8;;;2;;
49582;SDS011;36329;48.816;44.624;2022-08-20T04:41:46;8.8;;;1.8;;
49582;SDS011;36329;48.816;44.624;2022-08-20T04:44:47;7.3;;;1.7;;
49582;SDS011;36329;48.816;44.624;2022-08-20T04:47:49;7.5;;;1.8;;
49582;SDS011;36329;48.816;44.624;2022-08-20T04:50:51;8.3;;;1.7;;
49582;SDS011;36329;48.816;44.624;2022-08-20T04:53:54;8.9;;;2;;
49582;SDS011;36329;48.816;44.624;2022-08-20T04:56:56;6.7;;;1.5;;
49582;SDS011;36329;48.816;44.624;2022-08-20T04:59:58;9.9;;;1.9;;
49582;SDS011;36329;48.816;44.624;2022-08-20T05:03:06;10;;;2;;
49582;SDS011;36329;48.816;44.624;2022-08-20T05:06:09;6.1;;;1.9;;
49582;SDS011;36329;48.816;44.624;2022-08-20T05:09:11;6.7;;;1.9;;
49582;SDS011;36329;48.816;44.624;2022-08-20T05:12:13;6.5;;;1.9;;
49582;SDS011;36329;48.816;44.624;2022-08-20T05:15:14;7.5;;;2;;
49582;SDS011;36329;48.816;44.624;2022-08-20T05:18:17;7;;;2.2;;
49582;SDS011;36329;48.816;44.624;2022-08-20T05:21:20;9.4;;;2.2;;
49582;SDS011;36329;48.816;44.624;2022-08-20T05:24:26;11.7;;;2.1;;
49582;SDS011;36329;48.816;44.624;2022-08-20T05:27:29;11.5;;;2.4;;
49582;SDS011;36329;48.816;44.624;2022-08-20T05:30:30;12.1;;;2.5;;
49582;SDS011;36329;48.816;44.624;2022-08-20T05:33:42;21.7;;;2.6;;
49582;SDS011;36329;48.816;44.624;2022-08-20T05:36:47;11.6;;;2.3;;
49582;SDS011;36329;48.816;44.624;2022-08-20T05:39:56;15.5;;;2.4;;
49582;SDS011;36329;48.816;44.624;2022-08-20T05:42:58;8.4;;;2;;
49582;SDS011;36329;48.816;44.624;2022-08-20T05:46:04;9.2;;;1.9;;
49582;SDS011;36329;48.816;44.624;2022-08-20T05:49:14;13.1;;;2.3;;
49582;SDS011;36329;48.816;44.624;2022-08-20T05:52:16;14;;;2.1;;
49582;SDS011;36329;48.816;44.624;2022-08-20T05:55:18;9.6;;;2.1;;
49582;SDS011;36329;48.816;44.624;2022-08-20T05:58:22;9.6;;;1.8;;
49582;SDS011;36329;48.816;44.624;2022-08-20T06:01:30;12;;;2.2;;
49582;SDS011;36329;48.816;44.624;2022-08-20T06:04:39;12.8;;;2.5;;
49582;SDS011;36329;48.816;44.624;2022-08-20T06:07:40;13.5;;;2.4;;
49582;SDS011;36329;48.816;44.624;2022-08-20T06:10:42;12;;;2.3;;
49582;SDS011;36329;48.816;44.624;2022-08-20T06:13:49;9.1;;;2.2;;
49582;SDS011;36329;48.816;44.624;2022-08-20T06:16:51;14.7;;;2.4;;
49582;SDS011;36329;48.816;44.624;2022-08-20T06:19:53;7.3;;;2;;
49582;SDS011;36329;48.816;44.624;2022-08-20T06:23:01;13;;;2.2;;
49582;SDS011;36329;48.816;44.624;2022-08-20T06:26:14;13.6;;;2.5;;
49582;SDS011;36329;48.816;44.624;2022-08-20T06:29:15;18.3;;;2.5;;
49582;SDS011;36329;48.816;44.624;2022-08-20T06:32:32;13.7;;;2.4;;
49582;SDS011;36329;48.816;44.624;2022-08-20T06:35:34;18.3;;;2.6;;
49582;SDS011;36329;48.816;44.624;2022-08-20T06:38:36;16;;;2.6;;
49582;SDS011;36329;48.816;44.624;2022-08-20T06:41:37;13.8;;;2.6;;
49582;SDS011;36329;48.816;44.624;2022-08-20T06:44:39;18.4;;;2.9;;
49582;SDS011;36329;48.816;44.624;2022-08-20T06:47:46;24.2;;;3;;
49582;SDS011;36329;48.816;44.624;2022-08-20T06:50:48;18.4;;;2.6;;
49582;SDS011;36329;48.816;44.624;2022-08-20T06:53:50;20.9;;;3.9;;
49582;SDS011;36329;48.816;44.624;2022-08-20T06:56:51;30.6;;;3.6;;
49582;SDS011;36329;48.816;44.624;2022-08-20T06:59:53;30.1;;;4.6;;
49582;SDS011;36329;48.816;44.624;2022-08-20T07:02:55;31.9;;;4.4;;
49582;SDS011;36329;48.816;44.624;2022-08-20T07:05:56;30.1;;;4.4;;
49582;SDS011;36329;48.816;44.624;2022-08-20T07:08:58;33.2;;;4.4;;
49582;SDS011;36329;48.816;44.624;2022-08-20T07:12:00;32.2;;;4;;
49582;SDS011;36329;48.816;44.624;2022-08-20T07:15:02;31.8;;;4.7;;
49582;SDS011;36329;48.816;44.624;2022-08-20T07:18:10;29.7;;;4.2;;
49582;SDS011;36329;48.816;44.624;2022-08-20T07:21:12;24.4;;;4;;
49582;SDS011;36329;48.816;44.624;2022-08-20T07:24:19;29;;;4;;
49582;SDS011;36329;48.816;44.624;2022-08-20T07:27:21;26.2;;;4.3;;
49582;SDS011;36329;48.816;44.624;2022-08-20T07:30:24;29.2;;;4.2;;
49582;SDS011;36329;48.816;44.624;2022-08-20T07:33:32;29.5;;;4.2;;
49582;SDS011;36329;48.816;44.624;2022-08-20T07:36:35;28;;;3.9;;
49582;SDS011;36329;48.816;44.624;2022-08-20T07:39:36;24.5;;;4;;
49582;SDS011;36329;48.816;44.624;2022-08-20T07:42:38;34.2;;;4.3;;
49582;SDS011;36329;48.816;44.624;2022-08-20T07:45:40;30.3;;;4.2;;
49582;SDS011;36329;48.816;44.624;2022-08-20T07:48:48;31.1;;;4.5;;
49582;SDS011;36329;48.816;44.624;2022-08-20T07:51:56;30.7;;;4.3;;
49582;SDS011;36329;48.816;44.624;2022-08-20T07:55:05;34.6;;;4.3;;
49582;SDS011;36329;48.816;44.624;2022-08-20T07:58:11;43.8;;;4.9;;
49582;SDS011;36329;48.816;44.624;2022-08-20T08:01:14;33.3;;;5;;
49582;SDS011;36329;48.816;44.624;2022-08-20T08:04:21;33.9;;;4.6;;
49582;SDS011;36329;48.816;44.624;2022-08-20T08:07:23;37.2;;;4.5;;
49582;SDS011;36329;48.816;44.624;2022-08-20T08:10:31;34.2;;;4.9;;
49582;SDS011;36329;48.816;44.624;2022-08-20T08:13:39;40.4;;;5.4;;
49582;SDS011;36329;48.816;44.624;2022-08-20T08:16:41;33.2;;;4.9;;
49582;SDS011;36329;48.816;44.624;2022-08-20T08:19:44;44;;;5.8;;
49582;SDS011;36329;48.816;44.624;2022-08-20T08:22:48;35.3;;;5.3;;
49582;SDS011;36329;48.816;44.624;2022-08-20T08:26:01;38.1;;;5.2;;
49582;SDS011;36329;48.816;44.624;2022-08-20T08:29:03;36.3;;;5.5;;
49582;SDS011;36329;48.816;44.624;2022-08-20T08:32:06;34.6;;;4.9;;
49582;SDS011;36329;48.816;44.624;2022-08-20T08:35:08;30.4;;;4.9;;
49582;SDS011;36329;48.816;44.624;2022-08-20T08:38:09;36.3;;;4.5;;
49582;SDS011;36329;48.816;44.624;2022-08-20T08:41:15;35.7;;;5.4;;
49582;SDS011;36329;48.816;44.624;2022-08-20T08:44:33;26.7;;;4.2;;
49582;SDS011;36329;48.816;44.624;2022-08-20T08:47:38;32;;;4.8;;
49582;SDS011;36329;48.816;44.624;2022-08-20T08:50:40;35.8;;;5;;
49582;SDS011;36329;48.816;44.624;2022-08-20T08:53:45;29.2;;;4.5;;
49582;SDS011;36329;48.816;44.624;2022-08-20T08:56:50;38.4;;;4.7;;
49582;SDS011;36329;48.816;44.624;2022-08-20T08:59:54;33.4;;;4.9;;
49582;SDS011;36329;48.816;44.624;2022-08-20T09:02:58;33.5;;;5.5;;
49582;SDS011;36329;48.816;44.624;2022-08-20T09:06:04;24.9;;;4.4;;
49582;SDS011;36329;48.816;44.624;2022-08-20T09:09:06;29.4;;;3.9;;
49582;SDS011;36329;48.816;44.624;2022-08-20T09:12:16;31.6;;;5.2;;
49582;SDS011;36329;48.816;44.624;2022-08-20T09:15:19;29;;;5.1;;
49582;SDS011;36329;48.816;44.624;2022-08-20T09:18:22;32.3;;;5.5;;
49582;SDS011;36329;48.816;44.624;2022-08-20T09:21:23;31.2;;;5;;
49582;SDS011;36329;48.816;44.624;2022-08-20T09:24:25;29.3;;;5.2;;
49582;SDS011;36329;48.816;44.624;2022-08-20T09:27:27;26.2;;;3.6;;
49582;SDS011;36329;48.816;44.624;2022-08-20T09:30:28;26.6;;;3.9;;
49582;SDS011;36329;48.816;44.624;2022-08-20T09:33:30;30.8;;;4.4;;
49582;SDS011;36329;48.816;44.624;2022-08-20T09:36:32;36.9;;;5.3;;
49582;SDS011;36329;48.816;44.624;2022-08-20T09:39:34;36.2;;;4.8;;
49582;SDS011;36329;48.816;44.624;2022-08-20T09:42:36;41.3;;;5.2;;
49582;SDS011;36329;48.816;44.624;2022-08-20T09:45:39;34;;;5.9;;
49582;SDS011;36329;48.816;44.624;2022-08-20T09:48:46;34.6;;;4;;
49582;SDS011;36329;48.816;44.624;2022-08-20T09:51:49;29.8;;;3.9;;
49582;SDS011;36329;48.816;44.624;2022-08-20T09:54:51;25.8;;;3.6;;
49582;SDS011;36329;48.816;44.624;2022-08-20T09:58:02;29.6;;;3.9;;
49582;SDS011;36329;48.816;44.624;2022-08-20T10:01:10;27.4;;;3.8;;
49582;SDS011;36329;48.816;44.624;2022-08-20T10:04:24;23.3;;;3.5;;
49582;SDS011;36329;48.816;44.624;2022-08-20T10:07:26;27.3;;;3.8;;
49582;SDS011;36329;48.816;44.624;2022-08-20T10:10:28;32.9;;;3.9;;
49582;SDS011;36329;48.816;44.624;2022-08-20T10:13:29;29.3;;;3.6;;
49582;SDS011;36329;48.816;44.624;2022-08-20T10:16:31;35.8;;;4.5;;
49582;SDS011;36329;48.816;44.624;2022-08-20T10:19:32;32.2;;;4.8;;
49582;SDS011;36329;48.816;44.624;2022-08-20T10:22:35;37;;;4.7;;
49582;SDS011;36329;48.816;44.624;2022-08-20T10:25:42;36.3;;;4.4;;
49582;SDS011;36329;48.816;44.624;2022-08-20T10:28:44;36.9;;;4.7;;
49582;SDS011;36329;48.816;44.624;2022-08-20T10:31:46;32.5;;;5.3;;
49582;SDS011;36329;48.816;44.624;2022-08-20T10:34:47;44.6;;;6.4;;
49582;SDS011;36329;48.816;44.624;2022-08-20T10:37:49;37;;;6;;
49582;SDS011;36329;48.816;44.624;2022-08-20T10:40:56;42.9;;;5.9;;
49582;SDS011;36329;48.816;44.624;2022-08-20T10:43:58;39.8;;;5;;
49582;SDS011;36329;48.816;44.624;2022-08-20T10:50:22;44.5;;;5.4;;
49582;SDS011;36329;48.816;44.624;2022-08-20T10:53:23;38.3;;;4.3;;
49582;SDS011;36329;48.816;44.624;2022-08-20T10:56:25;37.4;;;4.6;;
49582;SDS011;36329;48.816;44.624;2022-08-20T10:59:26;46;;;7.5;;
49582;SDS011;36329;48.816;44.624;2022-08-20T11:02:28;42.7;;;5;;
49582;SDS011;36329;48.816;44.624;2022-08-20T11:05:30;38.4;;;4.5;;
49582;SDS011;36329;48.816;44.624;2022-08-20T11:08:42;41.6;;;4.7;;
49582;SDS011;36329;48.816;44.624;2022-08-20T11:11:44;38.8;;;4.5;;
49582;SDS011;36329;48.816;44.624;2022-08-20T11:14:46;37.1;;;5.1;;
49582;SDS011;36329;48.816;44.624;2022-08-20T11:17:50;39.7;;;4.4;;
49582;SDS011;36329;48.816;44.624;2022-08-20T11:20:57;34.2;;;4.2;;
49582;SDS011;36329;48.816;44.624;2022-08-20T11:23:59;40;;;5.9;;
49582;SDS011;36329;48.816;44.624;2022-08-20T11:27:00;41;;;6.8;;
49582;SDS011;36329;48.816;44.624;2022-08-20T11:30:03;36.8;;;5.8;;
49582;SDS011;36329;48.816;44.624;2022-08-20T11:33:05;45.6;;;4.8;;
49582;SDS011;36329;48.816;44.624;2022-08-20T11:36:07;38.7;;;5.2;;
49582;SDS011;36329;48.816;44.624;2022-08-20T11:39:09;40.7;;;5.3;;
49582;SDS011;36329;48.816;44.624;2022-08-20T11:45:23;62.7;;;5.4;;
49582;SDS011;36329;48.816;44.624;2022-08-20T11:48:25;60.7;;;6.5;;
49582;SDS011;36329;48.816;44.624;2022-08-20T11:51:26;39.7;;;4.7;;
49582;SDS011;36329;48.816;44.624;2022-08-20T11:54:28;40.9;;;5.3;;
49582;SDS011;36329;48.816;44.624;2022-08-20T11:57:31;44.8;;;5;;
49582;SDS011;36329;48.816;44.624;2022-08-20T12:00:34;44.1;;;4.9;;
49582;SDS011;36329;48.816;44.624;2022-08-20T12:03:36;49.7;;;5.8;;
49582;SDS011;36329;48.816;44.624;2022-08-20T12:06:37;45.7;;;5.5;;
49582;SDS011;36329;48.816;44.624;2022-08-20T12:09:39;36.5;;;5;;
49582;SDS011;36329;48.816;44.624;2022-08-20T12:12:47;43.2;;;5.1;;
49582;SDS011;36329;48.816;44.624;2022-08-20T12:15:49;54.3;;;6.6;;
49582;SDS011;36329;48.816;44.624;2022-08-20T12:18:50;56.5;;;6.2;;
49582;SDS011;36329;48.816;44.624;2022-08-20T12:21:52;58.3;;;6.3;;
49582;SDS011;36329;48.816;44.624;2022-08-20T12:25:06;61.4;;;7;;
49582;SDS011;36329;48.816;44.624;2022-08-20T12:28:19;53.1;;;6.3;;
49582;SDS011;36329;48.816;44.624;2022-08-20T12:31:20;54.6;;;6.7;;
49582;SDS011;36329;48.816;44.624;2022-08-20T12:34:27;65.3;;;7.8;;
49582;SDS011;36329;48.816;44.624;2022-08-20T12:37:30;52.9;;;7.2;;
49582;SDS011;36329;48.816;44.624;2022-08-20T12:40:32;58.2;;;7;;
49582;SDS011;36329;48.816;44.624;2022-08-20T12:43:34;57.1;;;5.9;;
49582;SDS011;36329;48.816;44.624;2022-08-20T12:46:36;55;;;6.4;;
49582;SDS011;36329;48.816;44.624;2022-08-20T12:49:38;57.9;;;6.3;;
49582;SDS011;36329;48.816;44.624;2022-08-20T12:52:41;64.1;;;7.2;;
49582;SDS011;36329;48.816;44.624;2022-08-20T12:55:43;57.3;;;6.8;;
49582;SDS011;36329;48.816;44.624;2022-08-20T12:58:45;50.9;;;6.5;;
49582;SDS011;36329;48.816;44.624;2022-08-20T13:01:47;48.8;;;7.2;;
49582;SDS011;36329;48.816;44.624;2022-08-20T13:04:48;53.5;;;7.7;;
49582;SDS011;36329;48.816;44.624;2022-08-20T13:07:51;49.9;;;6.8;;
49582;SDS011;36329;48.816;44.624;2022-08-20T13:10:52;54.8;;;6;;
49582;SDS011;36329;48.816;44.624;2022-08-20T13:13:54;54.7;;;5.7;;
49582;SDS011;36329;48.816;44.624;2022-08-20T13:16:56;48.1;;;5.9;;
49582;SDS011;36329;48.816;44.624;2022-08-20T13:20:03;53.1;;;5.7;;
49582;SDS011;36329;48.816;44.624;2022-08-20T13:23:11;57.5;;;7.6;;
49582;SDS011;36329;48.816;44.624;2022-08-20T13:26:13;57.5;;;6.9;;
49582;SDS011;36329;48.816;44.624;2022-08-20T13:29:15;65.2;;;7.7;;
49582;SDS011;36329;48.816;44.624;2022-08-20T13:32:17;68.8;;;7.6;;
49582;SDS011;36329;48.816;44.624;2022-08-20T13:35:20;61.8;;;9.1;;
49582;SDS011;36329;48.816;44.624;2022-08-20T13:38:23;67;;;8.3;;
49582;SDS011;36329;48.816;44.624;2022-08-20T13:41:24;60.2;;;7.7;;
49582;SDS011;36329;48.816;44.624;2022-08-20T13:44:26;77.7;;;9.4;;
49582;SDS011;36329;48.816;44.624;2022-08-20T13:47:32;77.6;;;8.8;;
49582;SDS011;36329;48.816;44.624;2022-08-20T13:50:46;82.8;;;9.3;;
49582;SDS011;36329;48.816;44.624;2022-08-20T13:53:53;77;;;9;;
49582;SDS011;36329;48.816;44.624;2022-08-20T13:57:02;91.3;;;10.1;;
49582;SDS011;36329;48.816;44.624;2022-08-20T14:00:05;94.3;;;10.1;;
49582;SDS011;36329;48.816;44.624;2022-08-20T14:03:09;79.7;;;10.6;;
49582;SDS011;36329;48.816;44.624;2022-08-20T14:06:11;81.3;;;10;;
49582;SDS011;36329;48.816;44.624;2022-08-20T14:09:12;90.6;;;12.4;;
49582;SDS011;36329;48.816;44.624;2022-08-20T14:12:14;110.6;;;11.6;;
49582;SDS011;36329;48.816;44.624;2022-08-20T14:15:16;93.3;;;11;;
49582;SDS011;36329;48.816;44.624;2022-08-20T14:18:19;89.6;;;10.5;;
49582;SDS011;36329;48.816;44.624;2022-08-20T14:21:26;92.5;;;11.5;;
49582;SDS011;36329;48.816;44.624;2022-08-20T14:24:34;88.3;;;10.1;;
49582;SDS011;36329;48.816;44.624;2022-08-20T14:27:35;114.6;;;11.5;;
49582;SDS011;36329;48.816;44.624;2022-08-20T14:30:42;100.1;;;11.6;;
49582;SDS011;36329;48.816;44.624;2022-08-20T14:33:44;90.2;;;11;;
49582;SDS011;36329;48.816;44.624;2022-08-20T14:36:46;84.1;;;11.5;;
49582;SDS011;36329;48.816;44.624;2022-08-20T14:39:52;86.4;;;10.9;;
49582;SDS011;36329;48.816;44.624;2022-08-20T14:42:56;98.6;;;13.3;;
49582;SDS011;36329;48.816;44.624;2022-08-20T14:46:03;91.6;;;16;;
49582;SDS011;36329;48.816;44.624;2022-08-20T14:49:05;98.4;;;13.4;;
49582;SDS011;36329;48.816;44.624;2022-08-20T14:52:07;92.5;;;13;;
49582;SDS011;36329;48.816;44.624;2022-08-20T14:55:16;98.8;;;12.7;;
49582;SDS011;36329;48.816;44.624;2022-08-20T14:58:21;96.8;;;11.6;;
49582;SDS011;36329;48.816;44.624;2022-08-20T15:01:22;97.7;;;12.1;;
49582;SDS011;36329;48.816;44.624;2022-08-20T15:04:24;96.4;;;13.2;;
49582;SDS011;36329;48.816;44.624;2022-08-20T15:07:27;100.3;;;11.4;;
49582;SDS011;36329;48.816;44.624;2022-08-20T15:10:30;99.2;;;11.1;;
49582;SDS011;36329;48.816;44.624;2022-08-20T15:13:33;92.5;;;11.4;;
49582;SDS011;36329;48.816;44.624;2022-08-20T15:16:34;83;;;11.6;;
49582;SDS011;36329;48.816;44.624;2022-08-20T15:19:41;87;;;10.9;;
49582;SDS011;36329;48.816;44.624;2022-08-20T15:22:50;94.1;;;11.2;;
49582;SDS011;36329;48.816;44.624;2022-08-20T15:25:51;80;;;10.1;;
49582;SDS011;36329;48.816;44.624;2022-08-20T15:28:53;79.9;;;10.9;;
49582;SDS011;36329;48.816;44.624;2022-08-20T15:31:54;84.9;;;11.1;;
49582;SDS011;36329;48.816;44.624;2022-08-20T15:34:56;74.7;;;9.3;;
49582;SDS011;36329;48.816;44.624;2022-08-20T15:38:02;78.8;;;10.1;;
49582;SDS011;36329;48.816;44.624;2022-08-20T15:41:10;90.2;;;10.1;;
49582;SDS011;36329;48.816;44.624;2022-08-20T15:44:12;90.3;;;10.8;;
49582;SDS011;36329;48.816;44.624;2022-08-20T15:47:18;88.4;;;11.5;;
49582;SDS011;36329;48.816;44.624;2022-08-20T15:50:26;96.6;;;12.3;;
49582;SDS011;36329;48.816;44.624;2022-08-20T15:53:44;106.2;;;13;;
49582;SDS011;36329;48.816;44.624;2022-08-20T15:56:59;117;;;14.6;;
49582;SDS011;36329;48.816;44.624;2022-08-20T16:00:07;115;;;14;;
49582;SDS011;36329;48.816;44.624;2022-08-20T16:03:24;121.7;;;14.9;;
49582;SDS011;36329;48.816;44.624;2022-08-20T16:06:31;118.2;;;15.2;;
49582;SDS011;36329;48.816;44.624;2022-08-20T16:09:37;115.4;;;15.4;;
49582;SDS011;36329;48.816;44.624;2022-08-20T16:12:48;121.3;;;14.6;;
49582;SDS011;36329;48.816;44.624;2022-08-20T16:15:52;121.2;;;15.4;;
49582;SDS011;36329;48.816;44.624;2022-08-20T16:19:03;130.4;;;15.2;;
49582;SDS011;36329;48.816;44.624;2022-08-20T16:22:05;128;;;15.8;;
49582;SDS011;36329;48.816;44.624;2022-08-20T16:25:11;117.6;;;15.3;;
49582;SDS011;36329;48.816;44.624;2022-08-20T16:28:17;112.9;;;14.8;;
49582;SDS011;36329;48.816;44.624;2022-08-20T16:31:24;116.5;;;14.9;;
49582;SDS011;36329;48.816;44.624;2022-08-20T16:34:32;121.7;;;15.5;;
49582;SDS011;36329;48.816;44.624;2022-08-20T16:37:41;123.7;;;16;;
49582;SDS011;36329;48.816;44.624;2022-08-20T16:40:48;103.8;;;14.1;;
49582;SDS011;36329;48.816;44.624;2022-08-20T16:43:54;116.4;;;16.1;;
49582;SDS011;36329;48.816;44.624;2022-08-20T16:47:10;116.9;;;14.3;;
49582;SDS011;36329;48.816;44.624;2022-08-20T16:50:16;109.7;;;14;;
49582;SDS011;36329;48.816;44.624;2022-08-20T16:53:21;105.6;;;13.9;;
49582;SDS011;36329;48.816;44.624;2022-08-20T16:56:34;105.1;;;13.9;;
49582;SDS011;36329;48.816;44.624;2022-08-20T17:03:07;116.5;;;13.8;;
49582;SDS011;36329;48.816;44.624;2022-08-20T17:06:16;105.6;;;13.8;;
49582;SDS011;36329;48.816;44.624;2022-08-20T17:09:38;103;;;14.2;;
49582;SDS011;36329;48.816;44.624;2022-08-20T17:12:42;109.2;;;13.6;;
49582;SDS011;36329;48.816;44.624;2022-08-20T17:15:50;95.8;;;13.1;;
49582;SDS011;36329;48.816;44.624;2022-08-20T17:18:54;95.5;;;12.8;;
49582;SDS011;36329;48.816;44.624;2022-08-20T17:22:15;93.6;;;13.1;;
49582;SDS011;36329;48.816;44.624;2022-08-20T17:25:20;96;;;12.2;;
49582;SDS011;36329;48.816;44.624;2022-08-20T17:28:33;104.9;;;12.2;;
49582;SDS011;36329;48.816;44.624;2022-08-20T17:31:36;93.9;;;13.5;;
49582;SDS011;36329;48.816;44.624;2022-08-20T17:34:45;101.4;;;12.3;;
49582;SDS011;36329;48.816;44.624;2022-08-20T17:37:50;96.5;;;14.7;;
49582;SDS011;36329;48.816;44.624;2022-08-20T17:40:58;99.3;;;13.6;;
49582;SDS011;36329;48.816;44.624;2022-08-20T17:44:02;101;;;13.9;;
49582;SDS011;36329;48.816;44.624;2022-08-20T17:47:08;109.9;;;14.3;;
49582;SDS011;36329;48.816;44.624;2022-08-20T17:50:16;100.7;;;14.2;;
49582;SDS011;36329;48.816;44.624;2022-08-20T17:53:27;105.5;;;14.3;;
49582;SDS011;36329;48.816;44.624;2022-08-20T17:56:44;101.4;;;14.2;;
49582;SDS011;36329;48.816;44.624;2022-08-20T17:59:53;89.5;;;13.1;;
49582;SDS011;36329;48.816;44.624;2022-08-20T18:03:00;88.2;;;12.8;;
49582;SDS011;36329;48.816;44.624;2022-08-20T18:06:10;78.1;;;11.4;;
49582;SDS011;36329;48.816;44.624;2022-08-20T18:09:21;66.2;;;9.7;;
49582;SDS011;36329;48.816;44.624;2022-08-20T18:12:30;51.1;;;8.3;;
49582;SDS011;36329;48.816;44.624;2022-08-20T18:15:37;36.3;;;6.8;;
49582;SDS011;36329;48.816;44.624;2022-08-20T18:18:52;30.4;;;5.9;;
49582;SDS011;36329;48.816;44.624;2022-08-20T18:22:01;29.1;;;5.5;;
49582;SDS011;36329;48.816;44.624;2022-08-20T18:25:13;21.5;;;4.8;;
49582;SDS011;36329;48.816;44.624;2022-08-20T18:28:25;19.5;;;4;;
49582;SDS011;36329;48.816;44.624;2022-08-20T18:31:38;19;;;4;;
49582;SDS011;36329;48.816;44.624;2022-08-20T18:34:44;20.5;;;3.8;;
49582;SDS011;36329;48.816;44.624;2022-08-20T18:37:56;19.9;;;3.4;;
49582;SDS011;36329;48.816;44.624;2022-08-20T18:41:24;15.3;;;3.3;;
49582;SDS011;36329;48.816;44.624;2022-08-20T18:44:34;13.9;;;2.6;;
49582;SDS011;36329;48.816;44.624;2022-08-20T18:47:41;14.1;;;2.2;;
49582;SDS011;36329;48.816;44.624;2022-08-20T18:50:51;13.7;;;2.9;;
49582;SDS011;36329;48.816;44.624;2022-08-20T18:53:55;13.6;;;3.8;;
49582;SDS011;36329;48.816;44.624;2022-08-20T18:57:05;14.1;;;4.3;;
49582;SDS011;36329;48.816;44.624;2022-08-20T19:00:09;12.2;;;4.1;;